Time;durP1;ratioP1;P1;durP2;ratioP2;P2;SDS_P1;SDS_P2;PMS_P1;PMS_P2;Temp;Humidity;BMP_temperature;BMP_pressure;BME280_temperature;BME280_humidity;BME280_pressure;Samples;Min_cycle;Max_cycle;Signal;HPM_P1;HPM_P2
2023/04/11 19:38:24;;;;;;;5.80;2.20;;;9.00;99.90;;;;;;5060784;28;20816;-81
2023/04/11 19:40:49;;;;;;;3.10;1.50;;;8.80;99.90;;;;;;5069218;28;20078;-81
2023/04/11 19:43:15;;;;;;;3.95;1.67;;;8.70;99.90;;;;;;5073927;28;20033;-81
2023/04/11 19:45:42;;;;;;;8.65;2.90;;;8.70;99.90;;;;;;5058602;28;20388;-75
2023/04/11 19:48:08;;;;;;;7.43;2.63;;;8.70;99.90;;;;;;5072974;28;20036;-78
2023/04/11 19:50:34;;;;;;;7.70;1.83;;;8.70;99.90;;;;;;5073099;28;20050;-82
2023/04/11 19:53:00;;;;;;;4.47;1.80;;;8.70;99.90;;;;;;5069980;28;20087;-79
2023/04/11 19:55:26;;;;;;;5.45;1.95;;;8.70;99.90;;;;;;5057231;28;20040;-72
2023/04/11 19:57:52;;;;;;;5.60;2.00;;;8.70;99.90;;;;;;5066449;28;20098;-79
2023/04/11 20:00:18;;;;;;;4.38;1.98;;;8.70;99.90;;;;;;5071296;28;20474;-80
2023/04/11 20:02:46;;;;;;;4.82;1.77;;;8.70;99.90;;;;;;5055973;28;20087;-80
2023/04/11 20:05:17;;;;;;;5.50;2.00;;;8.70;99.90;;;;;;5070884;28;20029;-80
2023/04/11 20:07:43;;;;;;;5.50;2.03;;;8.60;99.90;;;;;;5072331;28;20070;-82
2023/04/11 20:10:10;;;;;;;4.60;1.98;;;8.60;99.90;;;;;;5062343;28;20065;-80
2023/04/11 20:12:36;;;;;;;9.57;1.85;;;8.60;99.90;;;;;;5056558;28;20032;-81
2023/04/11 20:15:02;;;;;;;4.95;1.80;;;8.50;99.90;;;;;;5070828;28;20058;-78
2023/04/11 20:17:28;;;;;;;7.07;1.80;;;8.50;99.90;;;;;;5066118;28;20115;-73
2023/04/11 20:19:54;;;;;;;3.80;1.65;;;8.60;99.90;;;;;;5062316;28;20152;-81
2023/04/11 20:22:21;;;;;;;5.47;1.88;;;8.60;99.90;;;;;;5065556;28;20366;-77
2023/04/11 20:24:47;;;;;;;2.42;1.60;;;8.60;99.90;;;;;;5061109;28;20050;-78
2023/04/11 20:27:14;;;;;;;5.55;2.30;;;8.60;99.90;;;;;;5068185;28;20032;-80
2023/04/11 20:29:40;;;;;;;7.32;2.60;;;8.60;99.90;;;;;;5069327;28;20078;-78
2023/04/11 20:32:06;;;;;;;6.03;2.30;;;8.60;99.90;;;;;;5067867;28;20033;-74
2023/04/11 20:34:31;;;;;;;6.03;2.35;;;8.60;99.90;;;;;;5070496;28;20469;-77
2023/04/11 20:36:59;;;;;;;9.07;2.92;;;8.60;99.90;;;;;;5055774;28;20044;-77
2023/04/11 20:39:26;;;;;;;8.60;3.10;;;8.60;99.90;;;;;;5068227;28;20064;-77
2023/04/11 20:41:52;;;;;;;8.27;3.25;;;8.70;99.90;;;;;;5066915;28;20039;-75
2023/04/11 20:44:22;;;;;;;8.57;3.40;;;8.70;99.90;;;;;;5069520;28;20158;-78
2023/04/11 20:46:48;;;;;;;10.18;4.43;;;8.70;99.90;;;;;;5063768;28;20618;-79
2023/04/11 20:49:16;;;;;;;10.13;5.22;;;8.80;99.90;;;;;;5058773;28;20063;-78
2023/04/11 20:51:42;;;;;;;15.95;5.60;;;8.80;99.90;;;;;;5054169;28;20025;-80
2023/04/11 20:54:08;;;;;;;10.75;5.18;;;8.80;99.90;;;;;;5054045;28;20029;-78
2023/04/11 20:56:35;;;;;;;10.35;4.03;;;8.80;99.90;;;;;;5058901;28;20045;-79
2023/04/11 20:59:01;;;;;;;9.48;3.30;;;8.80;99.90;;;;;;5056508;28;20051;-83
2023/04/11 21:01:31;;;;;;;6.72;2.45;;;8.80;99.90;;;;;;5053733;28;20024;-82
2023/04/11 21:04:00;;;;;;;7.63;2.67;;;8.80;99.90;;;;;;5039661;28;20048;-81
2023/04/11 21:06:29;;;;;;;5.90;1.80;;;8.80;99.90;;;;;;5043746;28;20041;-80
2023/04/11 21:08:55;;;;;;;5.68;1.67;;;8.80;99.90;;;;;;5037162;28;20064;-80
2023/04/11 21:11:21;;;;;;;5.25;2.08;;;8.80;99.90;;;;;;5036413;28;20052;-81
2023/04/11 21:13:48;;;;;;;5.85;2.30;;;8.80;99.90;;;;;;5036056;28;20273;-80
2023/04/11 21:16:14;;;;;;;7.93;2.30;;;8.80;99.90;;;;;;5031930;28;20025;-80
2023/04/11 21:18:39;;;;;;;4.53;1.88;;;8.80;99.90;;;;;;5036607;28;20025;-79
2023/04/11 21:21:06;;;;;;;5.43;2.28;;;8.80;99.90;;;;;;5048444;28;20033;-80
2023/04/11 21:23:31;;;;;;;7.38;1.88;;;8.80;99.90;;;;;;5065134;28;20032;-81
2023/04/11 21:25:57;;;;;;;5.32;2.00;;;8.80;99.90;;;;;;5062974;28;20369;-82
2023/04/11 21:28:22;;;;;;;3.50;1.45;;;8.80;99.90;;;;;;5068325;28;20029;-81
2023/04/11 21:30:48;;;;;;;4.80;1.75;;;8.80;99.90;;;;;;5047670;28;20098;-72
2023/04/11 21:33:14;;;;;;;4.47;1.95;;;8.80;99.90;;;;;;5055020;28;20035;-82
2023/04/11 21:35:39;;;;;;;4.75;1.30;;;8.80;99.90;;;;;;5070627;28;20111;-76
2023/04/11 21:38:05;;;;;;;5.22;1.80;;;8.70;99.90;;;;;;5071346;28;20083;-81
2023/04/11 21:40:31;;;;;;;5.65;1.83;;;8.70;99.90;;;;;;5071245;28;20052;-71
2023/04/11 21:42:56;;;;;;;6.38;1.98;;;8.70;99.90;;;;;;5070104;28;20527;-82
2023/04/11 21:45:22;;;;;;;4.00;1.50;;;8.70;99.90;;;;;;5061341;28;20088;-84
2023/04/11 21:47:49;;;;;;;3.90;1.42;;;8.70;99.90;;;;;;5047501;28;20029;-83
2023/04/11 21:50:15;;;;;;;4.20;2.08;;;8.70;99.90;;;;;;5051593;28;20375;-83
2023/04/11 21:52:42;;;;;;;4.25;1.85;;;8.70;99.90;;;;;;5051678;28;20051;-83
2023/04/11 21:55:08;;;;;;;6.38;3.05;;;8.60;99.90;;;;;;5055465;28;20492;-75
2023/04/11 21:57:34;;;;;;;6.85;2.90;;;8.60;99.90;;;;;;5062103;28;20032;-83
2023/04/11 22:00:00;;;;;;;5.30;2.00;;;8.60;99.90;;;;;;5062677;28;20033;-78
2023/04/11 22:02:25;;;;;;;4.78;1.83;;;8.50;99.90;;;;;;5061101;28;20027;-85
2023/04/11 22:04:54;;;;;;;5.78;2.10;;;8.60;99.90;;;;;;5044993;28;20040;-83
2023/04/11 22:07:22;;;;;;;7.85;1.90;;;8.60;99.90;;;;;;5051472;28;20472;-83
2023/04/11 22:09:49;;;;;;;5.53;1.80;;;8.60;99.90;;;;;;5055159;28;20780;-82
2023/04/11 22:12:16;;;;;;;7.10;1.80;;;8.70;99.90;;;;;;5050027;28;20037;-79
2023/04/11 22:14:42;;;;;;;7.15;2.33;;;8.80;99.90;;;;;;5063814;28;20551;-77
2023/04/11 22:17:07;;;;;;;5.88;1.88;;;8.90;99.90;;;;;;5068456;28;20153;-74
2023/04/11 22:19:33;;;;;;;11.70;2.60;;;8.90;99.90;;;;;;5055414;28;20053;-78
2023/04/11 22:22:02;;;;;;;4.82;1.90;;;9.00;99.90;;;;;;5068072;28;20381;-75
2023/04/11 22:24:30;;;;;;;5.18;1.77;;;9.00;99.90;;;;;;5050091;28;20496;-71
2023/04/11 22:27:02;;;;;;;9.35;2.50;;;9.10;99.90;;;;;;5052332;28;20060;-80
2023/04/11 22:29:29;;;;;;;8.60;2.03;;;9.10;99.90;;;;;;5050322;28;20025;-73
2023/04/11 22:31:59;;;;;;;5.38;1.80;;;9.10;99.90;;;;;;5049667;28;20021;-79
2023/04/11 22:34:25;;;;;;;4.50;1.90;;;9.10;99.90;;;;;;5042404;28;20029;-82
2023/04/11 22:36:51;;;;;;;5.68;1.90;;;9.10;99.90;;;;;;5049702;28;20044;-81
2023/04/11 22:39:16;;;;;;;10.60;2.28;;;9.10;99.90;;;;;;5050503;28;20035;-77
2023/04/11 22:41:46;;;;;;;4.30;1.40;;;9.10;99.90;;;;;;5050200;28;20021;-81
2023/04/11 22:44:12;;;;;;;3.80;1.75;;;9.10;99.90;;;;;;5051642;28;20021;-81
2023/04/11 22:46:38;;;;;;;7.03;2.15;;;9.00;99.90;;;;;;5053641;28;20036;-82
2023/04/11 22:49:10;;;;;;;8.98;2.20;;;9.00;99.90;;;;;;5044023;28;20056;-77
2023/04/11 22:51:36;;;;;;;6.20;1.92;;;9.00;99.90;;;;;;5051159;28;20048;-79
2023/04/11 22:54:06;;;;;;;3.47;1.30;;;8.90;99.90;;;;;;5055232;28;20265;-83
2023/04/11 22:56:31;;;;;;;6.15;1.95;;;8.90;99.90;;;;;;5055473;28;20037;-71
2023/04/11 22:58:57;;;;;;;6.07;1.55;;;8.80;99.90;;;;;;5060597;28;20024;-78
2023/04/11 23:01:23;;;;;;;7.15;2.03;;;8.80;99.90;;;;;;5062417;28;20031;-81
2023/04/11 23:03:49;;;;;;;6.97;2.28;;;8.80;99.90;;;;;;5066214;28;20021;-80
2023/04/11 23:06:15;;;;;;;6.25;1.98;;;8.80;99.90;;;;;;5055959;28;20055;-80
2023/04/11 23:08:41;;;;;;;8.05;2.15;;;8.80;99.90;;;;;;5050426;28;20029;-81
2023/04/11 23:11:06;;;;;;;6.28;1.75;;;8.80;99.90;;;;;;5052011;28;20016;-76
2023/04/11 23:13:32;;;;;;;7.95;2.03;;;8.80;99.90;;;;;;5059069;28;20036;-69
2023/04/11 23:16:01;;;;;;;9.38;1.95;;;8.80;99.90;;;;;;5055150;28;20025;-81
2023/04/11 23:18:27;;;;;;;5.90;1.83;;;8.90;99.90;;;;;;5054627;28;20115;-80
2023/04/11 23:20:52;;;;;;;5.85;1.80;;;8.90;99.90;;;;;;5051416;28;20155;-82
2023/04/11 23:23:18;;;;;;;5.82;2.00;;;9.00;99.90;;;;;;5049710;28;20028;-81
2023/04/11 23:25:44;;;;;;;5.40;2.00;;;9.00;99.90;;;;;;5046989;28;20547;-80
2023/04/11 23:28:11;;;;;;;4.47;2.17;;;9.00;99.90;;;;;;5050337;28;20098;-81
2023/04/11 23:30:37;;;;;;;4.65;1.70;;;9.00;99.90;;;;;;5049204;28;20028;-80
2023/04/11 23:33:07;;;;;;;5.95;1.95;;;9.00;99.90;;;;;;5048256;28;20036;-82
2023/04/11 23:35:34;;;;;;;10.50;2.42;;;9.00;99.90;;;;;;5049854;28;20106;-81
2023/04/11 23:38:03;;;;;;;4.40;1.92;;;9.00;99.90;;;;;;5046022;28;20049;-82
2023/04/11 23:40:29;;;;;;;4.95;1.90;;;9.10;99.90;;;;;;5040655;28;20048;-72
2023/04/11 23:42:56;;;;;;;8.00;1.70;;;9.10;99.90;;;;;;5047847;28;20040;-78
2023/04/11 23:45:21;;;;;;;6.47;1.63;;;9.10;99.90;;;;;;5050338;28;20047;-81
2023/04/11 23:47:50;;;;;;;5.55;1.95;;;9.20;99.90;;;;;;5048473;28;20024;-82
2023/04/11 23:50:16;;;;;;;6.05;1.83;;;9.20;99.90;;;;;;5049088;28;20031;-79
2023/04/11 23:52:42;;;;;;;8.32;2.30;;;9.20;99.90;;;;;;5045167;28;20104;-83
2023/04/11 23:55:08;;;;;;;6.72;1.92;;;9.30;99.90;;;;;;5046341;28;20021;-83
2023/04/11 23:57:34;;;;;;;8.20;2.25;;;9.30;99.90;;;;;;5039846;28;20041;-81
